KFLD/FLD METAR and TAF weather

Enter ICAO airport designator
Station Type Date Time Source
KFLD METAR 2019/02/23 00:53 UTC NOAA

KFLD 230053Z AUTO 00000KT 9SM OVC100 M04/M09 A3036 RMK AO2 SLP300 T10441089


Station Type Date Time Source
KFLD Decoded METAR 2019/02/23 00:53 UTC NOAA

FOND DU LAC COUNTY AIRPORT, WI, United States (KFLD) 43-46N 88-29W 240M
Feb 22, 2019 - 07:53 PM EST / 2019.02.23 0053 UTC
Wind: Calm:0
Visibility: 9 mile(s):0
Sky conditions: overcast
Temperature: 24.1 F (-4.4 C)
Dew Point: 16.0 F (-8.9 C)
Relative Humidity: 70%
Pressure (altimeter): 30.36 in. Hg (1028 hPa)
ob: KFLD 230053Z AUTO 00000KT 9SM OVC100 M04/M09 A3036 RMK AO2 SLP300 T10441089
cycle: 1

Station Type Date Time Source
KFLD TAF UTC NOAA

Error!


Example: see airport list